Temp: 4.1°C   Baro: 1034.2mb
  Wind: 0.0mph   Dir: SSW (196°)
  Rain: 0.0mm (0.0mm/hr)
  Solar: 0W/m2  Hum: 85%

Historic data

Bath Spa Weather Station Historical Data
Daily Summary for December 01, 2021 Units:  Both    English   Metric
Daily Weekly Monthly Yearly Custom
  High: Low: Average:
Temperature: 51.1 °F /  10.6 °C 35.2 °F /  1.8 °C 45.1 °F /  7.3 °C
Dew Point: 49.6 °F /  9.8 °C 31.1 °F /  -0.5 °C 41.8 °F /  5.4 °C
Humidity: 92% 80% 85%
Wind Speed: 14.2mph /  22.9km/h - 6.3mph /  10.1km/h
Wind Gust: 24mph /  38.6km/h - -
Wind- - West
Pressure: 29.86 in /  1011.1 hPa 29.47 in /  997.9 hPa -
Precipitation: 0.17 in /  4.32 mm    
Historical Graphs
 
 
Tabular Data for December 01, 2021
Time Temperature Dew Point Pressure Wind Wind Speed Wind Gust Humidity Rainfall Rate (Hourly) solar
00:09 51.1 °F /  10.6 °C 49.6 °F /  9.8 °C 29.51in /  999.2hPa West 10.3mph /  16.6km/h 24mph /  38.6km/h 92% 0.00in /  0mm 0 W/m2
00:14 51.1 °F /  10.6 °C 49.6 °F /  9.8 °C 29.51in /  999.2hPa West 11.1mph /  17.9km/h 19mph /  30.6km/h 91.6% 0.00in /  0mm 0 W/m2
00:19 51.1 °F /  10.6 °C 49.5 °F /  9.7 °C 29.51in /  999.2hPa WNW 9.2mph /  14.8km/h 22mph /  35.4km/h 91% 0.00in /  0mm 0 W/m2
00:24 51.1 °F /  10.6 °C 49.5 °F /  9.7 °C 29.51in /  999.2hPa WNW 9mph /  14.5km/h 20mph /  32.2km/h 91% 0.01in /  0.25mm 0 W/m2
00:29 51 °F /  10.6 °C 49 °F /  9.4 °C 29.51in /  999.2hPa WNW 11mph /  17.7km/h 24mph /  38.6km/h 90% 0.01in /  0.25mm 0 W/m2
00:34 50.9 °F /  10.5 °C 48.9 °F /  9.4 °C 29.50in /  998.9hPa West 7mph /  11.3km/h 19mph /  30.6km/h 90% 0.01in /  0.25mm 0 W/m2
00:39 50.8 °F /  10.4 °C 48.6 °F /  9.2 °C 29.50in /  998.9hPa WNW 8.2mph /  13.2km/h 18mph /  29km/h 89% 0.01in /  0.25mm 0 W/m2
00:44 50.7 °F /  10.4 °C 48.6 °F /  9.2 °C 29.50in /  998.9hPa West 8.2mph /  13.2km/h 17mph /  27.4km/h 89% 0.01in /  0.25mm 0 W/m2
00:49 50.7 °F /  10.4 °C 48.6 °F /  9.2 °C 29.50in /  998.9hPa WNW 9.7mph /  15.6km/h 18mph /  29km/h 89% 0.01in /  0.25mm 0 W/m2
00:54 50.7 °F /  10.4 °C 48.6 °F /  9.2 °C 29.50in /  998.9hPa WNW 9mph /  14.5km/h 15mph /  24.1km/h 89% 0.01in /  0.25mm 0 W/m2
00:59 50.6 °F /  10.3 °C 48.5 °F /  9.2 °C 29.50in /  998.9hPa WNW 7.8mph /  12.6km/h 23mph /  37km/h 89% 0.01in /  0.25mm 0 W/m2
01:04 50.7 °F /  10.4 °C 48.6 °F /  9.2 °C 29.49in /  998.5hPa WNW 14.2mph /  22.9km/h 21mph /  33.8km/h 89% 0.01in /  0.25mm 0 W/m2
01:09 50.7 °F /  10.4 °C 48.6 °F /  9.2 °C 29.49in /  998.5hPa WNW 8mph /  12.9km/h 18mph /  29km/h 89% 0.01in /  0.25mm 0 W/m2
01:14 50.7 °F /  10.4 °C 48.6 °F /  9.2 °C 29.49in /  998.5hPa WNW 10mph /  16.1km/h 17mph /  27.4km/h 89% 0.01in /  0.25mm 0 W/m2
01:19 50.6 °F /  10.3 °C 48.5 °F /  9.2 °C 29.48in /  998.2hPa WNW 11.8mph /  19km/h 16mph /  25.7km/h 89% 0.01in /  0.25mm 0 W/m2
01:24 50.6 °F /  10.3 °C 48.5 °F /  9.2 °C 29.48in /  998.2hPa West 10.2mph /  16.4km/h 19mph /  30.6km/h 89% 0.00in /  0mm 0 W/m2
01:29 50.7 °F /  10.4 °C 48.6 °F /  9.2 °C 29.48in /  998.2hPa WNW 8.2mph /  13.2km/h 20mph /  32.2km/h 89% 0.00in /  0mm 0 W/m2
01:34 50.7 °F /  10.4 °C 48.6 °F /  9.2 °C 29.48in /  998.2hPa West 11mph /  17.7km/h 21mph /  33.8km/h 89.4% 0.00in /  0mm 0 W/m2
01:39 50.7 °F /  10.4 °C 48.7 °F /  9.3 °C 29.48in /  998.2hPa WNW 9mph /  14.5km/h 16mph /  25.7km/h 89.8% 0.00in /  0mm 0 W/m2
01:44 50.6 °F /  10.3 °C 48.6 °F /  9.2 °C 29.48in /  998.2hPa WNW 6.1mph /  9.8km/h 17mph /  27.4km/h 90% 0.00in /  0mm 0 W/m2
01:49 50.5 °F /  10.3 °C 48.6 °F /  9.2 °C 29.47in /  997.9hPa WNW 9.2mph /  14.8km/h 16mph /  25.7km/h 90% 0.00in /  0mm 0 W/m2
01:54 50.4 °F /  10.2 °C 48.4 °F /  9.1 °C 29.47in /  997.9hPa WNW 9.6mph /  15.4km/h 16mph /  25.7km/h 90% 0.00in /  0mm 0 W/m2
01:59 50.4 °F /  10.2 °C 48.4 °F /  9.1 °C 29.47in /  997.9hPa WNW 9.4mph /  15.1km/h 16mph /  25.7km/h 90% 0.00in /  0mm 0 W/m2
02:04 50.3 °F /  10.2 °C 48.3 °F /  9.1 °C 29.47in /  997.9hPa WNW 8.6mph /  13.8km/h 13mph /  20.9km/h 90% 0.00in /  0mm 0 W/m2
02:09 50.2 °F /  10.1 °C 48.2 °F /  9 °C 29.47in /  997.9hPa WNW 8mph /  12.9km/h 13mph /  20.9km/h 90% 0.00in /  0mm 0 W/m2
02:14 50.2 °F /  10.1 °C 48.2 °F /  9 °C 29.47in /  997.9hPa West 7.4mph /  11.9km/h 14mph /  22.5km/h 90% 0.00in /  0mm 0 W/m2
02:19 50.2 °F /  10.1 °C 48.2 °F /  9 °C 29.47in /  997.9hPa WNW 7.3mph /  11.7km/h 16mph /  25.7km/h 90% 0.00in /  0mm 0 W/m2
02:22 50.2 °F /  10.1 °C 48.2 °F /  9 °C 29.47in /  997.9hPa WNW 7.7mph /  12.4km/h 13mph /  20.9km/h 90% 0.00in /  0mm 0 W/m2
02:29 50.2 °F /  10.1 °C 48.2 °F /  9 °C 29.47in /  997.9hPa WNW 8.4mph /  13.5km/h 16mph /  25.7km/h 90% 0.00in /  0mm 0 W/m2
02:34 50.2 °F /  10.1 °C 48.2 °F /  9 °C 29.47in /  997.9hPa WNW 8.3mph /  13.4km/h 18mph /  29km/h 90% 0.00in /  0mm 0 W/m2
02:39 50.2 °F /  10.1 °C 48 °F /  8.9 °C 29.47in /  997.9hPa WNW 10.2mph /  16.4km/h 23mph /  37km/h 89.2% 0.00in /  0mm 0 W/m2
02:44 50.2 °F /  10.1 °C 48 °F /  8.9 °C 29.47in /  997.9hPa NW 6mph /  9.7km/h 15mph /  24.1km/h 89% 0.00in /  0mm 0 W/m2
02:49 50.2 °F /  10.1 °C 48 °F /  8.9 °C 29.47in /  997.9hPa WNW 12mph /  19.3km/h 19mph /  30.6km/h 89% 0.00in /  0mm 0 W/m2
02:54 50 °F /  10 °C 47.8 °F /  8.8 °C 29.47in /  997.9hPa NW 7.2mph /  11.6km/h 14mph /  22.5km/h 89% 0.00in /  0mm 0 W/m2
02:59 49.8 °F /  9.9 °C 47.7 °F /  8.7 °C 29.47in /  997.9hPa WNW 9.1mph /  14.6km/h 13mph /  20.9km/h 89% 0.00in /  0mm 0 W/m2
03:04 49.8 °F /  9.9 °C 47.7 °F /  8.7 °C 29.48in /  998.2hPa WNW 5.9mph /  9.5km/h 10mph /  16.1km/h 89% 0.00in /  0mm 0 W/m2
03:09 49.7 °F /  9.8 °C 47.6 °F /  8.7 °C 29.48in /  998.2hPa WNW 9mph /  14.5km/h 15mph /  24.1km/h 89% 0.00in /  0mm 0 W/m2
03:14 49.6 °F /  9.8 °C 47.5 °F /  8.6 °C 29.47in /  997.9hPa WNW 6.6mph /  10.6km/h 12mph /  19.3km/h 89% 0.00in /  0mm 0 W/m2
03:19 49.6 °F /  9.8 °C 47.5 °F /  8.6 °C 29.48in /  998.2hPa NW 7mph /  11.3km/h 12mph /  19.3km/h 89% 0.00in /  0mm 0 W/m2
03:24 49.5 °F /  9.7 °C 47.4 °F /  8.6 °C 29.48in /  998.2hPa WNW 6mph /  9.7km/h 13mph /  20.9km/h 89% 0.00in /  0mm 0 W/m2
03:29 49.5 °F /  9.7 °C 47 °F /  8.3 °C 29.48in /  998.2hPa WNW 5.8mph /  9.3km/h 11mph /  17.7km/h 88.2% 0.00in /  0mm 0 W/m2
03:34 49.5 °F /  9.7 °C 46.9 °F /  8.3 °C 29.48in /  998.2hPa WNW 9.5mph /  15.3km/h 12mph /  19.3km/h 88% 0.00in /  0mm 0 W/m2
03:39 49.5 °F /  9.7 °C 46.6 °F /  8.1 °C 29.48in /  998.2hPa NW 7.8mph /  12.6km/h 13mph /  20.9km/h 87% 0.00in /  0mm 0 W/m2
03:44 49.5 °F /  9.7 °C 46.6 °F /  8.1 °C 29.49in /  998.5hPa NW 9mph /  14.5km/h 24mph /  38.6km/h 86.6% 0.00in /  0mm 0 W/m2
03:48 49.7 °F /  9.8 °C 46.1 °F /  7.8 °C 29.48in /  998.2hPa NW 8.6mph /  13.8km/h 20mph /  32.2km/h 84.5% 0.00in /  0mm 0 W/m2
03:54 49.7 °F /  9.8 °C 45.6 °F /  7.6 °C 29.48in /  998.2hPa WNW 7mph /  11.3km/h 16mph /  25.7km/h 83% 0.00in /  0mm 0 W/m2
03:59 49.6 °F /  9.8 °C 45.4 °F /  7.4 °C 29.48in /  998.2hPa NW 6.4mph /  10.3km/h 16mph /  25.7km/h 82.6% 0.00in /  0mm 0 W/m2
04:04 49.5 °F /  9.7 °C 45.1 °F /  7.3 °C 29.49in /  998.5hPa NW 7.2mph /  11.6km/h 15mph /  24.1km/h 82% 0.00in /  0mm 0 W/m2
04:09 49.4 °F /  9.7 °C 45 °F /  7.2 °C 29.49in /  998.5hPa WNW 7mph /  11.3km/h 10mph /  16.1km/h 82% 0.00in /  0mm 0 W/m2
04:14 49.3 °F /  9.6 °C 45 °F /  7.2 °C 29.49in /  998.5hPa WNW 6.8mph /  10.9km/h 14mph /  22.5km/h 82.4% 0.00in /  0mm 0 W/m2
04:19 49.1 °F /  9.5 °C 44.8 °F /  7.1 °C 29.49in /  998.5hPa NW 5mph /  8km/h 15mph /  24.1km/h 82% 0.00in /  0mm 0 W/m2
04:24 48.9 °F /  9.4 °C 44.6 °F /  7 °C 29.49in /  998.5hPa NW 6.2mph /  10km/h 15mph /  24.1km/h 82% 0.00in /  0mm 0 W/m2
04:29 48.9 °F /  9.4 °C 44.6 °F /  7 °C 29.49in /  998.5hPa NW 6.6mph /  10.6km/h 15mph /  24.1km/h 82% 0.00in /  0mm 0 W/m2
04:34 48.7 °F /  9.3 °C 44.4 °F /  6.9 °C 29.49in /  998.5hPa NW 5.9mph /  9.5km/h 11mph /  17.7km/h 82% 0.00in /  0mm 0 W/m2
04:39 48.7 °F /  9.3 °C 44.6 °F /  7 °C 29.50in /  998.9hPa NW 4.4mph /  7.1km/h 9mph /  14.5km/h 82.4% 0.00in /  0mm 0 W/m2
04:44 48.7 °F /  9.3 °C 44.6 °F /  7 °C 29.50in /  998.9hPa WNW 3.6mph /  5.8km/h 8mph /  12.9km/h 82.8% 0.00in /  0mm 0 W/m2
04:49 48.6 °F /  9.2 °C 44.6 °F /  7 °C 29.50in /  998.9hPa WNW 8.2mph /  13.2km/h 16mph /  25.7km/h 83.2% 0.00in /  0mm 0 W/m2
04:54 48.4 °F /  9.1 °C 44.6 °F /  7 °C 29.50in /  998.9hPa NW 5.6mph /  9km/h 11mph /  17.7km/h 84% 0.00in /  0mm 0 W/m2
04:59 48.4 °F /  9.1 °C 44.6 °F /  7 °C 29.50in /  998.9hPa WNW 5.5mph /  8.9km/h 11mph /  17.7km/h 84% 0.00in /  0mm 0 W/m2
05:04 48.1 °F /  8.9 °C 44.1 °F /  6.7 °C 29.50in /  998.9hPa WNW 7.2mph /  11.6km/h 13mph /  20.9km/h 83% 0.00in /  0mm 0 W/m2
05:09 48 °F /  8.9 °C 44.1 °F /  6.7 °C 29.50in /  998.9hPa WNW 5.8mph /  9.3km/h 12mph /  19.3km/h 83% 0.00in /  0mm 0 W/m2
05:14 48 °F /  8.9 °C 44.1 °F /  6.7 °C 29.51in /  999.2hPa WNW 8.4mph /  13.5km/h 12mph /  19.3km/h 83% 0.00in /  0mm 0 W/m2
05:18 48 °F /  8.9 °C 44.1 °F /  6.7 °C 29.51in /  999.2hPa NW 5.2mph /  8.4km/h 9mph /  14.5km/h 83% 0.00in /  0mm 0 W/m2
05:23 48 °F /  8.9 °C 44.1 °F /  6.7 °C 29.51in /  999.2hPa WNW 6.7mph /  10.8km/h 13mph /  20.9km/h 83% 0.00in /  0mm 0 W/m2
05:29 48 °F /  8.9 °C 44.1 °F /  6.7 °C 29.51in /  999.2hPa WNW 9.2mph /  14.8km/h 19mph /  30.6km/h 83% 0.00in /  0mm 0 W/m2
05:34 48 °F /  8.9 °C 44.1 °F /  6.7 °C 29.52in /  999.5hPa WNW 8mph /  12.9km/h 15mph /  24.1km/h 83% 0.00in /  0mm 0 W/m2
05:39 47.8 °F /  8.8 °C 43.9 °F /  6.6 °C 29.52in /  999.5hPa WNW 8.2mph /  13.2km/h 15mph /  24.1km/h 83% 0.00in /  0mm 0 W/m2
05:44 47.7 °F /  8.7 °C 43.8 °F /  6.6 °C 29.52in /  999.5hPa WNW 7.8mph /  12.6km/h 17mph /  27.4km/h 83% 0.00in /  0mm 0 W/m2
05:49 47.7 °F /  8.7 °C 43.9 °F /  6.6 °C 29.52in /  999.5hPa WNW 7.6mph /  12.2km/h 17mph /  27.4km/h 84% 0.00in /  0mm 0 W/m2
05:54 47.5 °F /  8.6 °C 43.7 °F /  6.5 °C 29.52in /  999.5hPa WNW 7.2mph /  11.6km/h 13mph /  20.9km/h 83.8% 0.00in /  0mm 0 W/m2
05:59 47.5 °F /  8.6 °C 43.7 °F /  6.5 °C 29.52in /  999.5hPa WNW 8mph /  12.9km/h 14mph /  22.5km/h 83.8% 0.00in /  0mm 0 W/m2
06:04 47.5 °F /  8.6 °C 43.7 °F /  6.5 °C 29.52in /  999.5hPa WNW 10.5mph /  16.9km/h 14mph /  22.5km/h 84% 0.00in /  0mm 0 W/m2
06:09 47.3 °F /  8.5 °C 43.6 °F /  6.4 °C 29.52in /  999.5hPa WNW 6.6mph /  10.6km/h 13mph /  20.9km/h 84.2% 0.00in /  0mm 0 W/m2
06:14 47 °F /  8.3 °C 43.5 °F /  6.4 °C 29.52in /  999.5hPa WNW 5.3mph /  8.5km/h 12mph /  19.3km/h 85% 0.01in /  0.25mm 0 W/m2
06:19 46.7 °F /  8.2 °C 43.6 °F /  6.4 °C 29.53in /  999.9hPa WNW 7.8mph /  12.6km/h 13mph /  20.9km/h 86% 0.02in /  0.51mm 0 W/m2
06:24 46.3 °F /  7.9 °C 43.5 °F /  6.4 °C 29.53in /  999.9hPa WNW 6.6mph /  10.6km/h 14mph /  22.5km/h 86.8% 0.02in /  0.51mm 0 W/m2
06:29 46 °F /  7.8 °C 43.4 °F /  6.3 °C 29.53in /  999.9hPa WNW 5.7mph /  9.2km/h 11mph /  17.7km/h 87.4% 0.04in /  1.02mm 0 W/m2
06:34 45.9 °F /  7.7 °C 43.3 °F /  6.3 °C 29.53in /  999.9hPa WNW 6.5mph /  10.5km/h 10mph /  16.1km/h 88% 0.05in /  1.27mm 0 W/m2
06:39 45.7 °F /  7.6 °C 43.5 °F /  6.4 °C 29.53in /  999.9hPa WNW 5.3mph /  8.5km/h 10mph /  16.1km/h 88.8% 0.06in /  1.52mm 0 W/m2
06:44 45.6 °F /  7.6 °C 43.4 °F /  6.3 °C 29.53in /  999.9hPa WNW 5.3mph /  8.5km/h 11mph /  17.7km/h 89% 0.08in /  2.03mm 0 W/m2
06:49 45.3 °F /  7.4 °C 43.4 °F /  6.3 °C 29.53in /  999.9hPa WNW 5.7mph /  9.2km/h 9mph /  14.5km/h 89.6% 0.09in /  2.29mm 0 W/m2
06:54 45.2 °F /  7.3 °C 43.4 °F /  6.3 °C 29.53in /  999.9hPa WNW 5mph /  8km/h 10mph /  16.1km/h 90% 0.09in /  2.29mm 0 W/m2
06:59 45.1 °F /  7.3 °C 43.3 °F /  6.3 °C 29.53in /  999.9hPa WNW 5.6mph /  9km/h 8mph /  12.9km/h 90% 0.09in /  2.29mm 0 W/m2
07:04 45.1 °F /  7.3 °C 43.4 °F /  6.3 °C 29.54in /  1000.2hPa WNW 3.6mph /  5.8km/h 7mph /  11.3km/h 90.4% 0.09in /  2.29mm 0 W/m2
07:09 45 °F /  7.2 °C 43.3 °F /  6.3 °C 29.54in /  1000.2hPa WNW 4.1mph /  6.6km/h 7mph /  11.3km/h 91% 0.09in /  2.29mm 0 W/m2
07:14 45 °F /  7.2 °C 43.3 °F /  6.3 °C 29.54in /  1000.2hPa WNW 4.8mph /  7.7km/h 7mph /  11.3km/h 91% 0.09in /  2.29mm 0 W/m2
07:19 45 °F /  7.2 °C 43.3 °F /  6.3 °C 29.54in /  1000.2hPa WNW 4.5mph /  7.2km/h 7mph /  11.3km/h 91% 0.09in /  2.29mm 0 W/m2
07:24 44.9 °F /  7.2 °C 43.3 °F /  6.3 °C 29.54in /  1000.2hPa WNW 4.4mph /  7.1km/h 9mph /  14.5km/h 91% 0.08in /  2.03mm 0 W/m2
07:29 44.9 °F /  7.2 °C 43.2 °F /  6.2 °C 29.54in /  1000.2hPa WNW 5.8mph /  9.3km/h 10mph /  16.1km/h 91% 0.07in /  1.78mm 0 W/m2
07:34 44.8 °F /  7.1 °C 43.2 °F /  6.2 °C 29.54in /  1000.2hPa WNW 5.3mph /  8.5km/h 10mph /  16.1km/h 91% 0.06in /  1.52mm 0 W/m2
07:39 44.8 °F /  7.1 °C 43.2 °F /  6.2 °C 29.54in /  1000.2hPa WNW 7mph /  11.3km/h 10mph /  16.1km/h 91% 0.05in /  1.27mm 0 W/m2
07:44 44.8 °F /  7.1 °C 43.2 °F /  6.2 °C 29.54in /  1000.2hPa NW 5.3mph /  8.5km/h 9mph /  14.5km/h 91% 0.03in /  0.76mm 0 W/m2
07:49 44.9 °F /  7.2 °C 43.2 °F /  6.2 °C 29.54in /  1000.2hPa NW 6.7mph /  10.8km/h 13mph /  20.9km/h 91% 0.02in /  0.51mm 0 W/m2
07:54 44.9 °F /  7.2 °C 43.2 °F /  6.2 °C 29.54in /  1000.2hPa NW 6.1mph /  9.8km/h 11mph /  17.7km/h 90.8% 0.02in /  0.51mm 0 W/m2
07:59 45 °F /  7.2 °C 43.2 °F /  6.2 °C 29.54in /  1000.2hPa WNW 6.8mph /  10.9km/h 11mph /  17.7km/h 90% 0.01in /  0.25mm 0 W/m2
08:04 44.9 °F /  7.2 °C 43.1 °F /  6.2 °C 29.54in /  1000.2hPa WNW 6.1mph /  9.8km/h 11mph /  17.7km/h 90% 0.01in /  0.25mm 5 W/m2
08:09 44.8 °F /  7.1 °C 43 °F /  6.1 °C 29.55in /  1000.6hPa NW 5.1mph /  8.2km/h 11mph /  17.7km/h 90% 0.01in /  0.25mm 7 W/m2
08:14 44.8 °F /  7.1 °C 42.8 °F /  6 °C 29.55in /  1000.6hPa NW 5.2mph /  8.4km/h 10mph /  16.1km/h 89.6% 0.01in /  0.25mm 7 W/m2
08:19 44.8 °F /  7.1 °C 42.6 °F /  5.9 °C 29.55in /  1000.6hPa WNW 7.2mph /  11.6km/h 13mph /  20.9km/h 89% 0.01in /  0.25mm 9 W/m2
08:24 44.8 °F /  7.1 °C 42.6 °F /  5.9 °C 29.55in /  1000.6hPa WNW 4.5mph /  7.2km/h 12mph /  19.3km/h 89% 0.00in /  0mm 9 W/m2
08:29 44.8 °F /  7.1 °C 42.6 °F /  5.9 °C 29.55in /  1000.6hPa NW 7mph /  11.3km/h 13mph /  20.9km/h 89% 0.00in /  0mm 19 W/m2
08:34 45 °F /  7.2 °C 42.5 °F /  5.8 °C 29.55in /  1000.6hPa NW 7mph /  11.3km/h 10mph /  16.1km/h 88.2% 0.00in /  0mm 25 W/m2
08:39 45 °F /  7.2 °C 42.4 °F /  5.8 °C 29.55in /  1000.6hPa WNW 7.4mph /  11.9km/h 14mph /  22.5km/h 88% 0.00in /  0mm 26 W/m2
08:44 45.1 °F /  7.3 °C 42.4 °F /  5.8 °C 29.55in /  1000.6hPa WNW 6.6mph /  10.6km/h 11mph /  17.7km/h 87.2% 0.00in /  0mm 21 W/m2
08:49 45.1 °F /  7.3 °C 42.4 °F /  5.8 °C 29.55in /  1000.6hPa WNW 5.8mph /  9.3km/h 12mph /  19.3km/h 86.8% 0.00in /  0mm 32 W/m2
08:54 45.3 °F /  7.4 °C 42.3 °F /  5.7 °C 29.55in /  1000.6hPa WNW 5.9mph /  9.5km/h 11mph /  17.7km/h 86% 0.00in /  0mm 37 W/m2
08:59 45.3 °F /  7.4 °C 42.3 °F /  5.7 °C 29.56in /  1000.9hPa NW 4.9mph /  7.9km/h 11mph /  17.7km/h 86% 0.00in /  0mm 26 W/m2
09:04 45.2 °F /  7.3 °C 42.2 °F /  5.7 °C 29.56in /  1000.9hPa WNW 6.6mph /  10.6km/h 11mph /  17.7km/h 86% 0.00in /  0mm 53 W/m2
09:09 45.2 °F /  7.3 °C 41.9 °F /  5.5 °C 29.56in /  1000.9hPa WNW 8mph /  12.9km/h 12mph /  19.3km/h 85.2% 0.00in /  0mm 63 W/m2
09:14 45.5 °F /  7.5 °C 42.1 °F /  5.6 °C 29.56in /  1000.9hPa WNW 6mph /  9.7km/h 14mph /  22.5km/h 85% 0.00in /  0mm 53 W/m2
09:19 45.6 °F /  7.6 °C 42.2 °F /  5.7 °C 29.56in /  1000.9hPa WNW 8.8mph /  14.2km/h 14mph /  22.5km/h 85% 0.00in /  0mm 49 W/m2
09:24 45.4 °F /  7.4 °C 42 °F /  5.6 °C 29.56in /  1000.9hPa WNW 6.1mph /  9.8km/h 11mph /  17.7km/h 85% 0.00in /  0mm 63 W/m2
09:29 45.5 °F /  7.5 °C 42.1 °F /  5.6 °C 29.56in /  1000.9hPa WNW 8.2mph /  13.2km/h 12mph /  19.3km/h 85% 0.00in /  0mm 56 W/m2
09:34 45.7 °F /  7.6 °C 42.3 °F /  5.7 °C 29.56in /  1000.9hPa WNW 10mph /  16.1km/h 16mph /  25.7km/h 85% 0.00in /  0mm 44 W/m2
09:39 45.8 °F /  7.7 °C 42.3 °F /  5.7 °C 29.56in /  1000.9hPa WNW 10.2mph /  16.4km/h 16mph /  25.7km/h 85% 0.00in /  0mm 51 W/m2
09:44 45.9 °F /  7.7 °C 42.4 °F /  5.8 °C 29.56in /  1000.9hPa WNW 8.2mph /  13.2km/h 19mph /  30.6km/h 84.8% 0.00in /  0mm 62 W/m2
09:49 46 °F /  7.8 °C 42.4 °F /  5.8 °C 29.56in /  1000.9hPa WNW 8.5mph /  13.7km/h 17mph /  27.4km/h 84% 0.00in /  0mm 70 W/m2
09:54 46 °F /  7.8 °C 42.4 °F /  5.8 °C 29.55in /  1000.6hPa WNW 8mph /  12.9km/h 16mph /  25.7km/h 84% 0.00in /  0mm 83 W/m2
09:59 46.2 °F /  7.9 °C 42.6 °F /  5.9 °C 29.56in /  1000.9hPa WNW 8mph /  12.9km/h 13mph /  20.9km/h 84% 0.00in /  0mm 95 W/m2
10:04 46.2 °F /  7.9 °C 42.4 °F /  5.8 °C 29.56in /  1000.9hPa NW 8.8mph /  14.2km/h 18mph /  29km/h 83.4% 0.00in /  0mm 97 W/m2
10:09 46.2 °F /  7.9 °C 42.5 °F /  5.8 °C 29.56in /  1000.9hPa WNW 7.3mph /  11.7km/h 14mph /  22.5km/h 83.4% 0.00in /  0mm 120 W/m2
10:14 46.2 °F /  7.9 °C 42.6 °F /  5.9 °C 29.56in /  1000.9hPa WNW 9.1mph /  14.6km/h 15mph /  24.1km/h 84% 0.00in /  0mm 116 W/m2
10:19 46.2 °F /  7.9 °C 42.6 °F /  5.9 °C 29.56in /  1000.9hPa WNW 9mph /  14.5km/h 14mph /  22.5km/h 84% 0.00in /  0mm 214 W/m2
10:24 46.3 °F /  7.9 °C 42.7 °F /  5.9 °C 29.56in /  1000.9hPa WNW 9.2mph /  14.8km/h 14mph /  22.5km/h 84% 0.00in /  0mm 199 W/m2
10:29 46.6 °F /  8.1 °C 42.6 °F /  5.9 °C 29.56in /  1000.9hPa WNW 10.8mph /  17.4km/h 16mph /  25.7km/h 83.2% 0.00in /  0mm 185 W/m2
10:34 46.6 °F /  8.1 °C 42.6 °F /  5.9 °C 29.56in /  1000.9hPa WNW 8.6mph /  13.8km/h 15mph /  24.1km/h 83.2% 0.00in /  0mm 141 W/m2
10:39 46.6 °F /  8.1 °C 42.8 °F /  6 °C 29.56in /  1000.9hPa WNW 9mph /  14.5km/h 18mph /  29km/h 84% 0.00in /  0mm 167 W/m2
10:44 46.7 °F /  8.2 °C 42.9 °F /  6.1 °C 29.56in /  1000.9hPa NW 9mph /  14.5km/h 18mph /  29km/h 84% 0.00in /  0mm 190 W/m2
10:49 46.6 °F /  8.1 °C 42.8 °F /  6 °C 29.56in /  1000.9hPa WNW 9.4mph /  15.1km/h 20mph /  32.2km/h 84% 0.00in /  0mm 276 W/m2
10:54 46.8 °F /  8.2 °C 43 °F /  6.1 °C 29.56in /  1000.9hPa WNW 7.1mph /  11.4km/h 18mph /  29km/h 84% 0.00in /  0mm 278 W/m2
10:59 46.8 °F /  8.2 °C 43 °F /  6.1 °C 29.56in /  1000.9hPa WNW 13mph /  20.9km/h 20mph /  32.2km/h 84% 0.00in /  0mm 132 W/m2
11:04 46.6 °F /  8.1 °C 42.8 °F /  6 °C 29.56in /  1000.9hPa WNW 10.6mph /  17.1km/h 20mph /  32.2km/h 84% 0.00in /  0mm 107 W/m2
11:09 46.2 °F /  7.9 °C 42.6 °F /  5.9 °C 29.56in /  1000.9hPa WNW 8.6mph /  13.8km/h 15mph /  24.1km/h 84% 0.00in /  0mm 109 W/m2
11:14 46.2 °F /  7.9 °C 42.6 °F /  5.9 °C 29.56in /  1000.9hPa WNW 7.3mph /  11.7km/h 15mph /  24.1km/h 84% 0.00in /  0mm 202 W/m2
11:19 46.5 °F /  8.1 °C 42.8 °F /  6 °C 29.56in /  1000.9hPa NW 11.6mph /  18.7km/h 20mph /  32.2km/h 84% 0.00in /  0mm 232 W/m2
11:24 46.6 °F /  8.1 °C 42.8 °F /  6 °C 29.56in /  1000.9hPa WNW 8.2mph /  13.2km/h 18mph /  29km/h 84% 0.00in /  0mm 223 W/m2
11:29 46.7 °F /  8.2 °C 42.9 °F /  6.1 °C 29.56in /  1000.9hPa WNW 8.8mph /  14.2km/h 18mph /  29km/h 84% 0.00in /  0mm 223 W/m2
11:34 46.8 °F /  8.2 °C 43.1 °F /  6.2 °C 29.56in /  1000.9hPa WNW 8.4mph /  13.5km/h 18mph /  29km/h 84% 0.00in /  0mm 343 W/m2
11:39 47.3 °F /  8.5 °C 43.5 °F /  6.4 °C 29.56in /  1000.9hPa WNW 6.5mph /  10.5km/h 14mph /  22.5km/h 84% 0.00in /  0mm 294 W/m2
11:44 47.4 °F /  8.6 °C 43.5 °F /  6.4 °C 29.56in /  1000.9hPa WNW 8.3mph /  13.4km/h 14mph /  22.5km/h 83.4% 0.00in /  0mm 288 W/m2
11:49 47.5 °F /  8.6 °C 43.3 °F /  6.3 °C 29.55in /  1000.6hPa WNW 11.1mph /  17.9km/h 21mph /  33.8km/h 82.4% 0.00in /  0mm 278 W/m2
11:54 47.7 °F /  8.7 °C 43.1 °F /  6.2 °C 29.56in /  1000.9hPa NW 8.4mph /  13.5km/h 18mph /  29km/h 81.2% 0.00in /  0mm 121 W/m2
11:59 47.5 °F /  8.6 °C 42.8 °F /  6 °C 29.56in /  1000.9hPa WNW 10.3mph /  16.6km/h 16mph /  25.7km/h 81% 0.00in /  0mm 84 W/m2
12:04 47.2 °F /  8.4 °C 42.5 °F /  5.8 °C 29.56in /  1000.9hPa WNW 11.5mph /  18.5km/h 22mph /  35.4km/h 81% 0.00in /  0mm 88 W/m2
12:09 47.1 °F /  8.4 °C 42.4 °F /  5.8 °C 29.56in /  1000.9hPa WNW 8.4mph /  13.5km/h 22mph /  35.4km/h 81% 0.00in /  0mm 127 W/m2
12:14 47.1 °F /  8.4 °C 42.4 °F /  5.8 °C 29.55in /  1000.6hPa WNW 9.4mph /  15.1km/h 18mph /  29km/h 81% 0.00in /  0mm 174 W/m2
12:19 47.2 °F /  8.4 °C 42.5 °F /  5.8 °C 29.56in /  1000.9hPa NW 9.3mph /  15km/h 18mph /  29km/h 81% 0.00in /  0mm 153 W/m2
12:24 47.2 °F /  8.4 °C 42.6 °F /  5.9 °C 29.55in /  1000.6hPa WNW 9mph /  14.5km/h 19mph /  30.6km/h 81.2% 0.00in /  0mm 97 W/m2
12:29 46.8 °F /  8.2 °C 42.5 °F /  5.8 °C 29.55in /  1000.6hPa NW 11mph /  17.7km/h 17mph /  27.4km/h 82% 0.00in /  0mm 148 W/m2
12:34 46.9 °F /  8.3 °C 42.6 °F /  5.9 °C 29.55in /  1000.6hPa NW 8.8mph /  14.2km/h 22mph /  35.4km/h 82% 0.00in /  0mm 151 W/m2
12:39 47 °F /  8.3 °C 42.5 °F /  5.8 °C 29.55in /  1000.6hPa NW 8.2mph /  13.2km/h 20mph /  32.2km/h 81.4% 0.00in /  0mm 172 W/m2
12:44 47.1 °F /  8.4 °C 42.4 °F /  5.8 °C 29.55in /  1000.6hPa WNW 6mph /  9.7km/h 14mph /  22.5km/h 81% 0.00in /  0mm 158 W/m2
12:49 47.1 °F /  8.4 °C 42.2 °F /  5.7 °C 29.55in /  1000.6hPa NW 8.6mph /  13.8km/h 22mph /  35.4km/h 80.2% 0.00in /  0mm 139 W/m2
12:54 47.1 °F /  8.4 °C 42.1 °F /  5.6 °C 29.55in /  1000.6hPa WNW 9.4mph /  15.1km/h 18mph /  29km/h 80% 0.00in /  0mm 142 W/m2
12:59 47.4 °F /  8.6 °C 42.3 °F /  5.7 °C 29.55in /  1000.6hPa WNW 10.2mph /  16.4km/h 18mph /  29km/h 80% 0.00in /  0mm 294 W/m2
13:04 47.5 °F /  8.6 °C 42.4 °F /  5.8 °C 29.55in /  1000.6hPa WNW 8.5mph /  13.7km/h 20mph /  32.2km/h 80% 0.00in /  0mm 206 W/m2
13:09 47.5 °F /  8.6 °C 42.4 °F /  5.8 °C 29.55in /  1000.6hPa WNW 9.6mph /  15.4km/h 17mph /  27.4km/h 80% 0.00in /  0mm 74 W/m2
13:14 47.3 °F /  8.5 °C 42.3 °F /  5.7 °C 29.55in /  1000.6hPa WNW 7.6mph /  12.2km/h 17mph /  27.4km/h 80% 0.00in /  0mm 58 W/m2
13:19 47.1 °F /  8.4 °C 42.3 °F /  5.7 °C 29.56in /  1000.9hPa NW 6.1mph /  9.8km/h 13mph /  20.9km/h 80.8% 0.00in /  0mm 69 W/m2
13:24 47 °F /  8.3 °C 42.4 °F /  5.8 °C 29.55in /  1000.6hPa WNW 10.2mph /  16.4km/h 18mph /  29km/h 81% 0.00in /  0mm 83 W/m2
13:29 46.9 °F /  8.3 °C 42.3 °F /  5.7 °C 29.56in /  1000.9hPa NW 9mph /  14.5km/h 18mph /  29km/h 81% 0.00in /  0mm 53 W/m2
13:34 46.9 °F /  8.3 °C 42.3 °F /  5.7 °C 29.55in /  1000.6hPa WNW 7.4mph /  11.9km/h 16mph /  25.7km/h 81% 0.00in /  0mm 114 W/m2
13:39 46.9 °F /  8.3 °C 42.3 °F /  5.7 °C 29.55in /  1000.6hPa WNW 8.8mph /  14.2km/h 17mph /  27.4km/h 81% 0.00in /  0mm 120 W/m2
13:44 46.9 °F /  8.3 °C 42.3 °F /  5.7 °C 29.55in /  1000.6hPa NW 10.8mph /  17.4km/h 17mph /  27.4km/h 81% 0.00in /  0mm 72 W/m2
13:49 46.8 °F /  8.2 °C 42.1 °F /  5.6 °C 29.55in /  1000.6hPa WNW 10mph /  16.1km/h 17mph /  27.4km/h 81% 0.00in /  0mm 84 W/m2
13:54 46.8 °F /  8.2 °C 42.1 °F /  5.6 °C 29.55in /  1000.6hPa NW 5.2mph /  8.4km/h 13mph /  20.9km/h 81% 0.00in /  0mm 105 W/m2
13:59 46.8 °F /  8.2 °C 42.1 °F /  5.6 °C 29.55in /  1000.6hPa WNW 7.4mph /  11.9km/h 14mph /  22.5km/h 81% 0.00in /  0mm 90 W/m2
14:04 46.6 °F /  8.1 °C 41.9 °F /  5.5 °C 29.55in /  1000.6hPa WNW 11.3mph /  18.2km/h 18mph /  29km/h 81% 0.00in /  0mm 86 W/m2
14:09 46.6 °F /  8.1 °C 41.9 °F /  5.5 °C 29.55in /  1000.6hPa WNW 8.2mph /  13.2km/h 17mph /  27.4km/h 81% 0.00in /  0mm 153 W/m2
14:14 46.6 °F /  8.1 °C 41.9 °F /  5.5 °C 29.55in /  1000.6hPa WNW 8.2mph /  13.2km/h 17mph /  27.4km/h 81% 0.00in /  0mm 72 W/m2
14:19 46.4 °F /  8 °C 41.7 °F /  5.4 °C 29.55in /  1000.6hPa WNW 8mph /  12.9km/h 16mph /  25.7km/h 81% 0.00in /  0mm 49 W/m2
14:24 46.2 °F /  7.9 °C 41.5 °F /  5.3 °C 29.55in /  1000.6hPa WNW 7mph /  11.3km/h 13mph /  20.9km/h 81% 0.00in /  0mm 62 W/m2
14:29 46.2 °F /  7.9 °C 41.5 °F /  5.3 °C 29.55in /  1000.6hPa WNW 9.6mph /  15.4km/h 16mph /  25.7km/h 80.8% 0.00in /  0mm 132 W/m2
14:34 46.6 °F /  8.1 °C 41.7 °F /  5.4 °C 29.55in /  1000.6hPa WNW 7.1mph /  11.4km/h 15mph /  24.1km/h 80.4% 0.00in /  0mm 91 W/m2
14:39 46.6 °F /  8.1 °C 41.5 °F /  5.3 °C 29.56in /  1000.9hPa WNW 8.8mph /  14.2km/h 15mph /  24.1km/h 80% 0.00in /  0mm 151 W/m2
14:44 46.5 °F /  8.1 °C 41.5 °F /  5.3 °C 29.56in /  1000.9hPa WNW 6mph /  9.7km/h 16mph /  25.7km/h 80% 0.00in /  0mm 70 W/m2
14:49 46.3 °F /  7.9 °C 41.4 °F /  5.2 °C 29.56in /  1000.9hPa WNW 7.2mph /  11.6km/h 12mph /  19.3km/h 80% 0.00in /  0mm 95 W/m2
14:54 46.2 °F /  7.9 °C 41.4 °F /  5.2 °C 29.56in /  1000.9hPa WNW 7mph /  11.3km/h 13mph /  20.9km/h 80% 0.00in /  0mm 72 W/m2
14:59 46.2 °F /  7.9 °C 41.5 °F /  5.3 °C 29.56in /  1000.9hPa WNW 5.2mph /  8.4km/h 12mph /  19.3km/h 81% 0.00in /  0mm 56 W/m2
15:04 46.2 °F /  7.9 °C 41.5 °F /  5.3 °C 29.56in /  1000.9hPa WNW 5.9mph /  9.5km/h 14mph /  22.5km/h 80.6% 0.00in /  0mm 33 W/m2
15:09 46.1 °F /  7.8 °C 41.5 °F /  5.3 °C 29.56in /  1000.9hPa WNW 5.2mph /  8.4km/h 11mph /  17.7km/h 81% 0.00in /  0mm 28 W/m2
15:14 46 °F /  7.8 °C 41.4 °F /  5.2 °C 29.56in /  1000.9hPa WNW 8.6mph /  13.8km/h 15mph /  24.1km/h 81% 0.00in /  0mm 19 W/m2
15:19 45.9 °F /  7.7 °C 41.4 °F /  5.2 °C 29.56in /  1000.9hPa WNW 7.3mph /  11.7km/h 14mph /  22.5km/h 81.4% 0.00in /  0mm 25 W/m2
15:24 45.8 °F /  7.7 °C 41.4 °F /  5.2 °C 29.57in /  1001.2hPa WNW 4.5mph /  7.2km/h 10mph /  16.1km/h 82% 0.00in /  0mm 25 W/m2
15:29 45.7 °F /  7.6 °C 41.4 °F /  5.2 °C 29.57in /  1001.2hPa WNW 6.2mph /  10km/h 11mph /  17.7km/h 82% 0.00in /  0mm 16 W/m2
15:34 45.6 °F /  7.6 °C 41.6 °F /  5.3 °C 29.57in /  1001.2hPa WNW 6.8mph /  10.9km/h 10mph /  16.1km/h 83% 0.00in /  0mm 11 W/m2
15:39 45.5 °F /  7.5 °C 41.5 °F /  5.3 °C 29.57in /  1001.2hPa WNW 7.6mph /  12.2km/h 16mph /  25.7km/h 83% 0.00in /  0mm 14 W/m2
15:44 45.4 °F /  7.4 °C 41.4 °F /  5.2 °C 29.56in /  1000.9hPa WNW 7.8mph /  12.6km/h 17mph /  27.4km/h 83% 0.00in /  0mm 14 W/m2
15:49 45.4 °F /  7.4 °C 41.5 °F /  5.3 °C 29.56in /  1000.9hPa WNW 4.1mph /  6.6km/h 12mph /  19.3km/h 83% 0.00in /  0mm 18 W/m2
15:54 45.3 °F /  7.4 °C 41.4 °F /  5.2 °C 29.56in /  1000.9hPa WNW 6.9mph /  11.1km/h 15mph /  24.1km/h 83% 0.00in /  0mm 19 W/m2
15:59 45.3 °F /  7.4 °C 41.4 °F /  5.2 °C 29.56in /  1000.9hPa WNW 6.5mph /  10.5km/h 11mph /  17.7km/h 83% 0.00in /  0mm 11 W/m2
16:04 45.3 °F /  7.4 °C 41.4 °F /  5.2 °C 29.56in /  1000.9hPa WNW 6.4mph /  10.3km/h 14mph /  22.5km/h 83% 0.00in /  0mm 5 W/m2
16:09 45.1 °F /  7.3 °C 41.2 °F /  5.1 °C 29.56in /  1000.9hPa WNW 7mph /  11.3km/h 13mph /  20.9km/h 83% 0.00in /  0mm 0 W/m2
16:14 45.1 °F /  7.3 °C 41.2 °F /  5.1 °C 29.57in /  1001.2hPa WNW 5.6mph /  9km/h 9mph /  14.5km/h 83.2% 0.00in /  0mm 0 W/m2
16:19 45 °F /  7.2 °C 41.3 °F /  5.2 °C 29.56in /  1000.9hPa WNW 6.7mph /  10.8km/h 11mph /  17.7km/h 84% 0.00in /  0mm 0 W/m2
16:24 44.8 °F /  7.1 °C 41.2 °F /  5.1 °C 29.56in /  1000.9hPa WNW 8.2mph /  13.2km/h 12mph /  19.3km/h 84% 0.00in /  0mm 0 W/m2
16:29 44.8 °F /  7.1 °C 41.2 °F /  5.1 °C 29.56in /  1000.9hPa NW 6.6mph /  10.6km/h 11mph /  17.7km/h 84% 0.00in /  0mm 0 W/m2
16:34 44.7 °F /  7.1 °C 41.1 °F /  5.1 °C 29.56in /  1000.9hPa WNW 5.8mph /  9.3km/h 10mph /  16.1km/h 84% 0.00in /  0mm 0 W/m2
16:39 44.6 °F /  7 °C 41 °F /  5 °C 29.57in /  1001.2hPa WNW 6.4mph /  10.3km/h 13mph /  20.9km/h 84% 0.00in /  0mm 0 W/m2
16:44 44.8 °F /  7.1 °C 41.2 °F /  5.1 °C 29.57in /  1001.2hPa NW 4.2mph /  6.8km/h 10mph /  16.1km/h 84% 0.00in /  0mm 0 W/m2
16:49 44.8 °F /  7.1 °C 41.2 °F /  5.1 °C 29.57in /  1001.2hPa WNW 6.6mph /  10.6km/h 10mph /  16.1km/h 84% 0.00in /  0mm 0 W/m2
16:54 44.8 °F /  7.1 °C 41 °F /  5 °C 29.58in /  1001.6hPa NW 4.3mph /  6.9km/h 9mph /  14.5km/h 83.4% 0.00in /  0mm 0 W/m2
16:59 44.9 °F /  7.2 °C 41.1 °F /  5.1 °C 29.58in /  1001.6hPa WNW 5.4mph /  8.7km/h 8mph /  12.9km/h 83.6% 0.00in /  0mm 0 W/m2
17:04 44.8 °F /  7.1 °C 41.2 °F /  5.1 °C 29.58in /  1001.6hPa NW 3.8mph /  6.1km/h 8mph /  12.9km/h 84% 0.01in /  0.25mm 0 W/m2
17:09 44.5 °F /  6.9 °C 41 °F /  5 °C 29.59in /  1001.9hPa NW 3.3mph /  5.3km/h 8mph /  12.9km/h 84.4% 0.02in /  0.51mm 0 W/m2
17:14 44.2 °F /  6.8 °C 40.8 °F /  4.9 °C 29.60in /  1002.3hPa NW 3.7mph /  6km/h 10mph /  16.1km/h 85% 0.02in /  0.51mm 0 W/m2
17:19 44.1 °F /  6.7 °C 41 °F /  5 °C 29.60in /  1002.3hPa NW 4.4mph /  7.1km/h 10mph /  16.1km/h 86% 0.04in /  1.02mm 0 W/m2
17:24 43.9 °F /  6.6 °C 41.1 °F /  5.1 °C 29.61in /  1002.6hPa NNW 5.4mph /  8.7km/h 11mph /  17.7km/h 86.8% 0.05in /  1.27mm 0 W/m2
17:29 43.6 °F /  6.4 °C 40.9 °F /  4.9 °C 29.62in /  1002.9hPa NNW 6.9mph /  11.1km/h 13mph /  20.9km/h 87% 0.05in /  1.27mm 0 W/m2
17:34 43.3 °F /  6.3 °C 40.9 °F /  4.9 °C 29.62in /  1002.9hPa North 5.4mph /  8.7km/h 12mph /  19.3km/h 87.8% 0.06in /  1.52mm 0 W/m2
17:39 43.2 °F /  6.2 °C 40.8 °F /  4.9 °C 29.63in /  1003.3hPa NNE 7.7mph /  12.4km/h 12mph /  19.3km/h 88% 0.06in /  1.52mm 0 W/m2
17:44 43.1 °F /  6.2 °C 40.7 °F /  4.8 °C 29.63in /  1003.3hPa NNE 5.8mph /  9.3km/h 13mph /  20.9km/h 88% 0.06in /  1.52mm 0 W/m2
17:49 42.9 °F /  6.1 °C 40.6 °F /  4.8 °C 29.64in /  1003.6hPa NNE 5.6mph /  9km/h 13mph /  20.9km/h 88% 0.06in /  1.52mm 0 W/m2
17:54 42.8 °F /  6 °C 40.5 °F /  4.7 °C 29.65in /  1003.9hPa NNE 4.4mph /  7.1km/h 11mph /  17.7km/h 88.4% 0.06in /  1.52mm 0 W/m2
17:59 42.6 °F /  5.9 °C 40.5 °F /  4.7 °C 29.65in /  1003.9hPa NNE 10.6mph /  17.1km/h 17mph /  27.4km/h 89% 0.06in /  1.52mm 0 W/m2
18:04 42.6 °F /  5.9 °C 40.3 °F /  4.6 °C 29.66in /  1004.3hPa NNE 9.4mph /  15.1km/h 20mph /  32.2km/h 88% 0.06in /  1.52mm 0 W/m2
18:09 42.6 °F /  5.9 °C 40.3 °F /  4.6 °C 29.66in /  1004.3hPa NNE 8.6mph /  13.8km/h 22mph /  35.4km/h 88% 0.05in /  1.27mm 0 W/m2
18:14 42.4 °F /  5.8 °C 40.1 °F /  4.5 °C 29.67in /  1004.6hPa NNE 5mph /  8km/h 11mph /  17.7km/h 88% 0.04in /  1.02mm 0 W/m2
18:19 42.4 °F /  5.8 °C 40.1 °F /  4.5 °C 29.67in /  1004.6hPa NNE 4.9mph /  7.9km/h 13mph /  20.9km/h 88% 0.03in /  0.76mm 0 W/m2
18:24 42.4 °F /  5.8 °C 40.1 °F /  4.5 °C 29.68in /  1005hPa North 5.9mph /  9.5km/h 11mph /  17.7km/h 88% 0.02in /  0.51mm 0 W/m2
18:29 42.4 °F /  5.8 °C 40 °F /  4.4 °C 29.68in /  1005hPa North 6.4mph /  10.3km/h 13mph /  20.9km/h 88% 0.01in /  0.25mm 0 W/m2
18:34 42.3 °F /  5.7 °C 40 °F /  4.4 °C 29.69in /  1005.3hPa North 5mph /  8km/h 14mph /  22.5km/h 88% 0.00in /  0mm 0 W/m2
18:39 42.3 °F /  5.7 °C 40 °F /  4.4 °C 29.70in /  1005.6hPa NNE 3.6mph /  5.8km/h 11mph /  17.7km/h 88% 0.00in /  0mm 0 W/m2
18:44 42.4 °F /  5.8 °C 40.1 °F /  4.5 °C 29.70in /  1005.6hPa NE 5.8mph /  9.3km/h 11mph /  17.7km/h 88% 0.00in /  0mm 0 W/m2
18:49 42.3 °F /  5.7 °C 39.9 °F /  4.4 °C 29.70in /  1005.6hPa NNE 5.9mph /  9.5km/h 9mph /  14.5km/h 88% 0.00in /  0mm 0 W/m2
18:54 42.2 °F /  5.7 °C 39.6 °F /  4.2 °C 29.70in /  1005.6hPa North 5.7mph /  9.2km/h 11mph /  17.7km/h 87.4% 0.00in /  0mm 0 W/m2
18:59 42.1 °F /  5.6 °C 39.4 °F /  4.1 °C 29.71in /  1006hPa NNW 5.4mph /  8.7km/h 10mph /  16.1km/h 87% 0.00in /  0mm 0 W/m2
19:04 42 °F /  5.6 °C 39.4 °F /  4.1 °C 29.72in /  1006.3hPa NNW 4.1mph /  6.6km/h 8mph /  12.9km/h 87.2% 0.00in /  0mm 0 W/m2
19:09 41.9 °F /  5.5 °C 39.6 °F /  4.2 °C 29.72in /  1006.3hPa North 4.1mph /  6.6km/h 8mph /  12.9km/h 88% 0.00in /  0mm 0 W/m2
19:14 41.7 °F /  5.4 °C 39.4 °F /  4.1 °C 29.73in /  1006.7hPa North 5.1mph /  8.2km/h 11mph /  17.7km/h 88% 0.00in /  0mm 0 W/m2
19:19 41.9 °F /  5.5 °C 39.2 °F /  4 °C 29.73in /  1006.7hPa NNE 2.4mph /  3.9km/h 11mph /  17.7km/h 87.2% 0.00in /  0mm 0 W/m2
19:24 42 °F /  5.6 °C 39.3 °F /  4.1 °C 29.74in /  1007hPa NNW 3.4mph /  5.5km/h 9mph /  14.5km/h 87% 0.00in /  0mm 0 W/m2
19:29 41.9 °F /  5.5 °C 39.2 °F /  4 °C 29.74in /  1007hPa NNW 3.5mph /  5.6km/h 8mph /  12.9km/h 87% 0.00in /  0mm 0 W/m2
19:34 41.9 °F /  5.5 °C 39.2 °F /  4 °C 29.74in /  1007hPa North 4.8mph /  7.7km/h 9mph /  14.5km/h 87% 0.00in /  0mm 0 W/m2
19:39 41.7 °F /  5.4 °C 39 °F /  3.9 °C 29.74in /  1007hPa North 4.5mph /  7.2km/h 10mph /  16.1km/h 87% 0.00in /  0mm 0 W/m2
19:44 41.6 °F /  5.3 °C 38.9 °F /  3.8 °C 29.75in /  1007.3hPa North 5.6mph /  9km/h 15mph /  24.1km/h 87% 0.00in /  0mm 0 W/m2
19:49 41.5 °F /  5.3 °C 38.5 °F /  3.6 °C 29.75in /  1007.3hPa North 4.6mph /  7.4km/h 11mph /  17.7km/h 86% 0.00in /  0mm 0 W/m2
19:54 41.4 °F /  5.2 °C 38.4 °F /  3.6 °C 29.76in /  1007.7hPa NNW 3.4mph /  5.5km/h 9mph /  14.5km/h 86% 0.00in /  0mm 0 W/m2
19:59 41.4 °F /  5.2 °C 38.3 °F /  3.5 °C 29.76in /  1007.7hPa NNW 2.1mph /  3.4km/h 5mph /  8km/h 86% 0.00in /  0mm 0 W/m2
20:04 41.1 °F /  5.1 °C 38 °F /  3.3 °C 29.76in /  1007.7hPa NNW 3.5mph /  5.6km/h 7mph /  11.3km/h 86% 0.00in /  0mm 0 W/m2
20:09 40.7 °F /  4.8 °C 37.7 °F /  3.2 °C 29.77in /  1008hPa NNW 3.5mph /  5.6km/h 7mph /  11.3km/h 86% 0.00in /  0mm 0 W/m2
20:14 40.6 °F /  4.8 °C 37.6 °F /  3.1 °C 29.77in /  1008hPa NNW 2.9mph /  4.7km/h 7mph /  11.3km/h 86% 0.00in /  0mm 0 W/m2
20:19 40.5 °F /  4.7 °C 37.6 °F /  3.1 °C 29.77in /  1008hPa NNW 2.9mph /  4.7km/h 7mph /  11.3km/h 86% 0.00in /  0mm 0 W/m2
20:24 40.3 °F /  4.6 °C 37.4 °F /  3 °C 29.77in /  1008hPa North 3.2mph /  5.1km/h 12mph /  19.3km/h 86% 0.00in /  0mm 0 W/m2
20:29 40.1 °F /  4.5 °C 37.2 °F /  2.9 °C 29.78in /  1008.4hPa NNW 6.3mph /  10.1km/h 12mph /  19.3km/h 86% 0.00in /  0mm 0 W/m2
20:34 39.9 °F /  4.4 °C 37 °F /  2.8 °C 29.78in /  1008.4hPa NNW 3.9mph /  6.3km/h 9mph /  14.5km/h 86% 0.00in /  0mm 0 W/m2
20:39 39.8 °F /  4.3 °C 36.9 °F /  2.7 °C 29.78in /  1008.4hPa NNW 2.5mph /  4km/h 7mph /  11.3km/h 86% 0.00in /  0mm 0 W/m2
20:44 39.7 °F /  4.3 °C 36.9 °F /  2.7 °C 29.79in /  1008.7hPa NNW 2.2mph /  3.5km/h 6mph /  9.7km/h 86.2% 0.00in /  0mm 0 W/m2
20:49 39.7 °F /  4.3 °C 37 °F /  2.8 °C 29.79in /  1008.7hPa NNW 1mph /  1.6km/h 5mph /  8km/h 87% 0.00in /  0mm 0 W/m2
20:54 39.5 °F /  4.2 °C 36.7 °F /  2.6 °C 29.79in /  1008.7hPa NNW 1.6mph /  2.6km/h 7mph /  11.3km/h 86.4% 0.00in /  0mm 0 W/m2
20:59 39.4 °F /  4.1 °C 36.5 °F /  2.5 °C 29.80in /  1009hPa NNW 1.5mph /  2.4km/h 4mph /  6.4km/h 86% 0.00in /  0mm 0 W/m2
21:04 39.4 °F /  4.1 °C 36.5 °F /  2.5 °C 29.80in /  1009hPa Calm   3mph /  4.8km/h 86% 0.00in /  0mm 0 W/m2
21:09 39.1 °F /  3.9 °C 36.2 °F /  2.3 °C 29.80in /  1009hPa NNW 0.2mph /  0.3km/h 3mph /  4.8km/h 86% 0.00in /  0mm 0 W/m2
21:14 38.9 °F /  3.8 °C 35.9 °F /  2.2 °C 29.80in /  1009hPa NNW 0.2mph /  0.3km/h 3mph /  4.8km/h 85.6% 0.00in /  0mm 0 W/m2
21:19 38.8 °F /  3.8 °C 35.6 °F /  2 °C 29.80in /  1009hPa Calm   4mph /  6.4km/h 85% 0.00in /  0mm 0 W/m2
21:24 38.6 °F /  3.7 °C 35.3 °F /  1.8 °C 29.81in /  1009.4hPa NNW 0.4mph /  0.6km/h 3mph /  4.8km/h 85% 0.00in /  0mm 0 W/m2
21:29 38.4 °F /  3.6 °C 35.2 °F /  1.8 °C 29.81in /  1009.4hPa NNW 0.6mph /  1km/h 9mph /  14.5km/h 85% 0.00in /  0mm 0 W/m2
21:34 38.2 °F /  3.4 °C 35 °F /  1.7 °C 29.81in /  1009.4hPa Calm   1mph /  1.6km/h 85% 0.00in /  0mm 0 W/m2
21:39 38.1 °F /  3.4 °C 34.9 °F /  1.6 °C 29.81in /  1009.4hPa Calm   5mph /  8km/h 85% 0.00in /  0mm 0 W/m2
21:44 37.9 °F /  3.3 °C 34.7 °F /  1.5 °C 29.81in /  1009.4hPa NNW 0.4mph /  0.6km/h 4mph /  6.4km/h 85% 0.00in /  0mm 0 W/m2
21:49 37.9 °F /  3.3 °C 34.6 °F /  1.4 °C 29.82in /  1009.7hPa NNW 1.2mph /  1.9km/h 6mph /  9.7km/h 85% 0.00in /  0mm 0 W/m2
21:54 37.8 °F /  3.2 °C 34.4 °F /  1.3 °C 29.82in /  1009.7hPa NNW 1.4mph /  2.3km/h 7mph /  11.3km/h 84.6% 0.00in /  0mm 0 W/m2
21:59 37.8 °F /  3.2 °C 34.2 °F /  1.2 °C 29.82in /  1009.7hPa NNW 3.6mph /  5.8km/h 8mph /  12.9km/h 84% 0.00in /  0mm 0 W/m2
22:04 37.8 °F /  3.2 °C 34.2 °F /  1.2 °C 29.82in /  1009.7hPa North 0.8mph /  1.3km/h 8mph /  12.9km/h 84% 0.00in /  0mm 0 W/m2
22:09 37.8 °F /  3.2 °C 34.2 °F /  1.2 °C 29.82in /  1009.7hPa North 2.4mph /  3.9km/h 7mph /  11.3km/h 84% 0.00in /  0mm 0 W/m2
22:14 37.7 °F /  3.2 °C 33.9 °F /  1.1 °C 29.82in /  1009.7hPa North 1.6mph /  2.6km/h 7mph /  11.3km/h 83% 0.00in /  0mm 0 W/m2
22:19 37.6 °F /  3.1 °C 33.8 °F /  1 °C 29.82in /  1009.7hPa North 1.8mph /  2.9km/h 7mph /  11.3km/h 83% 0.00in /  0mm 0 W/m2
22:24 37.3 °F /  2.9 °C 33.5 °F /  0.8 °C 29.83in /  1010hPa North 1.4mph /  2.3km/h 8mph /  12.9km/h 83% 0.00in /  0mm 0 W/m2
22:29 37.2 °F /  2.9 °C 33.4 °F /  0.8 °C 29.83in /  1010hPa North 3.3mph /  5.3km/h 9mph /  14.5km/h 83% 0.00in /  0mm 0 W/m2
22:34 37.2 °F /  2.9 °C 33.4 °F /  0.8 °C 29.83in /  1010hPa North 0.8mph /  1.3km/h 8mph /  12.9km/h 83% 0.00in /  0mm 0 W/m2
22:39 37 °F /  2.8 °C 33.1 °F /  0.6 °C 29.83in /  1010hPa North 1.8mph /  2.9km/h 6mph /  9.7km/h 82.4% 0.00in /  0mm 0 W/m2
22:44 37 °F /  2.8 °C 32.9 °F /  0.5 °C 29.83in /  1010hPa North 1mph /  1.6km/h 7mph /  11.3km/h 82% 0.00in /  0mm 0 W/m2
22:49 37 °F /  2.8 °C 32.8 °F /  0.4 °C 29.83in /  1010hPa Calm   4mph /  6.4km/h 82% 0.00in /  0mm 0 W/m2
22:54 36.8 °F /  2.7 °C 32.6 °F /  0.3 °C 29.84in /  1010.4hPa North 0.6mph /  1km/h 6mph /  9.7km/h 82% 0.00in /  0mm 0 W/m2
22:59 36.7 °F /  2.6 °C 32.5 °F /  0.3 °C 29.84in /  1010.4hPa Calm   6mph /  9.7km/h 82% 0.00in /  0mm 0 W/m2
23:04 36.5 °F /  2.5 °C 32.4 °F /  0.2 °C 29.84in /  1010.4hPa North 0.2mph /  0.3km/h 3mph /  4.8km/h 82% 0.00in /  0mm 0 W/m2
23:09 36.3 °F /  2.4 °C 32.2 °F /  0.1 °C 29.84in /  1010.4hPa North 0.6mph /  1km/h 5mph /  8km/h 82% 0.00in /  0mm 0 W/m2
23:14 36.1 °F /  2.3 °C 32 °F /  0 °C 29.85in /  1010.7hPa North 0.4mph /  0.6km/h 5mph /  8km/h 82% 0.00in /  0mm 0 W/m2
23:19 36 °F /  2.2 °C 31.9 °F /  -0.1 °C 29.85in /  1010.7hPa Calm   2mph /  3.2km/h 82% 0.00in /  0mm 0 W/m2
23:24 36 °F /  2.2 °C 31.8 °F /  -0.1 °C 29.85in /  1010.7hPa North 1.4mph /  2.3km/h 7mph /  11.3km/h 82% 0.00in /  0mm 0 W/m2
23:29 35.8 °F /  2.1 °C 31.9 °F /  -0.1 °C 29.85in /  1010.7hPa North 0.2mph /  0.3km/h 7mph /  11.3km/h 82.8% 0.00in /  0mm 0 W/m2
23:34 35.8 °F /  2.1 °C 31.6 °F /  -0.2 °C 29.85in /  1010.7hPa Calm   6mph /  9.7km/h 82% 0.00in /  0mm 0 W/m2
23:39 35.8 °F /  2.1 °C 31.6 °F /  -0.2 °C 29.85in /  1010.7hPa North 0.8mph /  1.3km/h 5mph /  8km/h 82% 0.00in /  0mm 0 W/m2
23:44 35.7 °F /  2.1 °C 31.5 °F /  -0.3 °C 29.85in /  1010.7hPa North 0.8mph /  1.3km/h 4mph /  6.4km/h 82% 0.00in /  0mm 0 W/m2
23:48 35.5 °F /  1.9 °C 31.4 °F /  -0.3 °C 29.85in /  1010.7hPa Calm   2mph /  3.2km/h 82% 0.00in /  0mm 0 W/m2
23:54 35.4 °F /  1.9 °C 31.3 °F /  -0.4 °C 29.86in /  1011.1hPa Calm   1mph /  1.6km/h 82% 0.00in /  0mm 0 W/m2
23:59 35.2 °F /  1.8 °C 31.1 °F /  -0.5 °C 29.86in /  1011.1hPa Calm     82% 0.00in /  0mm 0 W/m2
Bath Spa Weather
Compliments of Weather Underground - 2 mb